Time;durP1;ratioP1;P1;durP2;ratioP2;P2;SDS_P1;SDS_P2;PMS_P1;PMS_P2;Temp;Humidity;BMP_temperature;BMP_pressure;BME280_temperature;BME280_humidity;BME280_pressure;Samples;Min_cycle;Max_cycle;Signal;HPM_P1;HPM_P2
2023/06/30 00:00:51;;;;;;;6.10;2.88;;;;;;;16.64;70.95;99351.19;4986430;28;20053;-96
2023/06/30 00:03:16;;;;;;;7.70;3.65;;;;;;;16.56;71.13;99352.75;4969267;28;20022;-94
2023/06/30 00:05:42;;;;;;;5.28;3.28;;;;;;;16.44;71.60;99354.44;4969961;28;20483;-94
2023/06/30 00:08:08;;;;;;;3.63;2.90;;;;;;;16.36;71.59;99348.59;4969735;28;20507;-94
2023/06/30 00:10:35;;;;;;;5.63;3.35;;;;;;;16.27;72.32;99342.31;4970107;28;20129;-94
2023/06/30 00:13:00;;;;;;;7.88;3.72;;;;;;;16.25;72.43;99351.84;4969817;28;20530;-95
2023/06/30 00:15:25;;;;;;;6.15;3.30;;;;;;;16.23;72.40;99354.91;5001760;28;20037;-94
2023/06/30 00:17:52;;;;;;;5.00;3.00;;;;;;;16.27;72.31;99364.03;4985447;28;20022;-94
2023/06/30 00:20:18;;;;;;;5.80;3.33;;;;;;;16.26;71.05;99365.13;4985639;28;20028;-95
2023/06/30 00:22:44;;;;;;;8.43;3.70;;;;;;;16.23;70.78;99349.47;4985162;28;20014;-94
2023/06/30 00:25:09;;;;;;;11.02;3.08;;;;;;;16.33;70.76;99354.66;4970154;28;20392;-95
2023/06/30 00:27:35;;;;;;;3.65;3.25;;;;;;;16.48;70.52;99347.28;4984962;28;20022;-94
2023/06/30 00:30:00;;;;;;;5.40;3.17;;;;;;;16.57;70.19;99351.63;4984842;28;20022;-94
2023/06/30 00:32:28;;;;;;;6.68;3.58;;;;;;;16.44;70.40;99346.28;4984917;28;20492;-94
2023/06/30 00:34:55;;;;;;;4.60;2.75;;;;;;;16.38;69.76;99344.78;4985455;28;20034;-95
2023/06/30 00:37:21;;;;;;;6.85;3.50;;;;;;;16.55;69.57;99359.31;4968530;28;20054;-95
2023/06/30 00:39:46;;;;;;;6.90;3.30;;;;;;;16.61;68.64;99354.56;4967848;28;20483;-95
2023/06/30 00:42:12;;;;;;;3.92;2.80;;;;;;;16.54;69.22;99348.75;5000519;28;20052;-95
2023/06/30 00:44:37;;;;;;;4.55;3.25;;;;;;;16.48;68.81;99341.84;4968372;28;20025;-94
2023/06/30 00:47:03;;;;;;;5.57;3.60;;;;;;;16.44;69.50;99343.56;4968649;28;20022;-94
2023/06/30 00:49:28;;;;;;;3.53;2.90;;;;;;;16.40;70.22;99348.81;4968105;28;20064;-95
2023/06/30 00:51:54;;;;;;;9.27;3.22;;;;;;;16.39;70.29;99343.66;4968162;28;20032;-95
2023/06/30 00:54:19;;;;;;;6.07;2.95;;;;;;;16.30;70.62;99357.97;4968851;28;20018;-95
2023/06/30 00:56:45;;;;;;;4.70;3.47;;;;;;;16.20;71.68;99357.41;4968710;28;20018;-94
2023/06/30 00:59:10;;;;;;;5.07;3.15;;;;;;;16.21;70.88;99351.69;4968412;28;20400;-95
2023/06/30 01:02:02;;;;;;;4.00;3.20;;;;;;;16.31;70.55;99359.59;4968321;28;20022;-94
2023/06/30 01:04:37;;;;;;;4.55;3.25;;;;;;;16.39;70.34;99365.41;4982927;28;20037;-94
2023/06/30 01:07:41;;;;;;;4.25;3.30;;;;;;;16.27;71.43;99360.50;4968639;28;20119;-95
2023/06/30 01:10:08;;;;;;;4.55;3.35;;;;;;;16.16;71.83;99349.91;4983699;28;20404;-94
2023/06/30 01:12:34;;;;;;;5.72;3.25;;;;;;;16.17;71.24;99353.41;5001354;28;20033;-95
2023/06/30 01:14:59;;;;;;;4.95;3.22;;;;;;;16.05;71.15;99340.34;4967104;28;20021;-93
2023/06/30 01:17:25;;;;;;;8.50;3.35;;;;;;;16.05;71.59;99351.22;4967916;28;20018;-94
2023/06/30 01:19:52;;;;;;;8.05;3.40;;;;;;;15.93;72.15;99350.94;4967202;28;20033;-94
2023/06/30 01:22:24;;;;;;;9.40;3.80;;;;;;;15.90;72.30;99363.22;4984922;28;20337;-94
2023/06/30 01:24:51;;;;;;;6.03;3.55;;;;;;;15.78;72.55;99346.63;4984376;28;20029;-95
2023/06/30 01:27:16;;;;;;;7.18;3.33;;;;;;;15.71;72.34;99341.59;4983333;28;20022;-94
2023/06/30 01:29:42;;;;;;;4.45;3.10;;;;;;;15.72;72.40;99342.41;4966887;28;20033;-94
2023/06/30 01:32:08;;;;;;;5.40;3.33;;;;;;;15.74;72.21;99329.34;4983562;28;20033;-94
2023/06/30 01:34:34;;;;;;;5.72;3.50;;;;;;;15.77;72.22;99339.59;4967178;28;20030;-96
2023/06/30 01:36:59;;;;;;;6.07;3.28;;;;;;;15.65;72.03;99331.94;4967415;28;20028;-96
2023/06/30 01:39:24;;;;;;;5.38;3.65;;;;;;;15.57;72.68;99336.16;4966897;28;20025;-94
2023/06/30 01:41:50;;;;;;;5.32;3.40;;;;;;;15.57;72.90;99328.03;4984208;28;20030;-96
2023/06/30 01:44:15;;;;;;;6.57;3.45;;;;;;;15.54;72.98;99331.34;4967734;28;20025;-94
2023/06/30 01:46:41;;;;;;;8.25;3.47;;;;;;;15.59;72.84;99337.78;4966937;28;20472;-93
2023/06/30 01:49:08;;;;;;;6.15;3.35;;;;;;;15.66;72.26;99338.97;4983644;28;20566;-95
2023/06/30 01:51:33;;;;;;;4.63;3.30;;;;;;;15.61;72.55;99338.28;4967589;28;20187;-93
2023/06/30 01:53:58;;;;;;;4.65;3.05;;;;;;;15.55;73.10;99332.94;4967443;28;20026;-94
2023/06/30 01:56:24;;;;;;;5.43;3.20;;;;;;;15.57;73.08;99333.44;4967762;28;20026;-94
2023/06/30 01:58:49;;;;;;;5.00;3.58;;;;;;;15.54;72.89;99339.50;4967385;28;20037;-96
2023/06/30 02:01:15;;;;;;;5.70;3.15;;;;;;;15.50;73.25;99333.06;4967850;28;20026;-94
2023/06/30 02:03:40;;;;;;;4.70;3.30;;;;;;;15.52;72.59;99332.72;4983863;28;20029;-94
2023/06/30 02:06:06;;;;;;;5.05;3.40;;;;;;;15.51;72.47;99325.72;4983232;28;20030;-94
2023/06/30 02:08:31;;;;;;;7.50;3.50;;;;;;;15.53;72.26;99321.59;4983682;28;20030;-94
2023/06/30 02:10:57;;;;;;;5.20;3.17;;;;;;;15.56;72.45;99325.59;4967921;28;20404;-94
2023/06/30 02:13:22;;;;;;;4.55;3.70;;;;;;;15.62;72.29;99326.31;4984260;28;20384;-95
2023/06/30 02:15:47;;;;;;;5.68;3.60;;;;;;;15.50;72.66;99314.06;4967667;28;20018;-94
2023/06/30 02:18:13;;;;;;;8.68;3.33;;;;;;;15.51;73.15;99325.72;4966841;28;20172;-94
2023/06/30 02:20:38;;;;;;;4.78;3.85;;;;;;;15.52;73.19;99335.44;4982563;28;20033;-94
2023/06/30 02:23:04;;;;;;;6.93;4.13;;;;;;;15.51;73.35;99329.22;4967275;28;20030;-95
2023/06/30 02:25:29;;;;;;;6.32;3.40;;;;;;;15.53;73.08;99328.94;4967816;28;20022;-94
2023/06/30 02:27:55;;;;;;;5.82;3.50;;;;;;;15.45;73.24;99329.63;4966524;28;20022;-94
2023/06/30 02:30:20;;;;;;;5.55;3.70;;;;;;;15.41;73.83;99331.34;4983272;28;20038;-95
2023/06/30 02:32:46;;;;;;;5.57;3.35;;;;;;;15.42;73.98;99330.22;4982707;28;20029;-94
2023/06/30 02:35:12;;;;;;;5.35;3.50;;;;;;;15.54;73.27;99352.22;4967458;28;20550;-95
2023/06/30 02:37:38;;;;;;;7.43;3.35;;;;;;;15.50;73.37;99338.50;4963667;28;20496;-95
2023/06/30 02:40:04;;;;;;;4.13;3.60;;;;;;;15.55;72.93;99327.53;4964191;28;20228;-94
2023/06/30 02:42:30;;;;;;;5.53;3.40;;;;;;;15.51;73.52;99331.94;4963974;28;20049;-94
2023/06/30 02:44:55;;;;;;;6.55;3.38;;;;;;;15.35;74.38;99328.72;4980091;28;20022;-95
2023/06/30 02:47:20;;;;;;;4.72;3.65;;;;;;;15.35;73.85;99339.56;4963667;28;20034;-94
2023/06/30 02:49:46;;;;;;;4.25;3.67;;;;;;;15.35;74.18;99338.78;4979432;28;20405;-94
2023/06/30 02:52:11;;;;;;;6.38;3.85;;;;;;;15.32;74.05;99332.03;4979782;28;20065;-94
2023/06/30 02:54:37;;;;;;;9.23;3.58;;;;;;;15.38;74.13;99349.03;4963748;28;20026;-94
2023/06/30 02:57:02;;;;;;;7.72;3.88;;;;;;;15.34;74.11;99348.81;4963254;28;20026;-95
2023/06/30 02:59:28;;;;;;;11.18;3.53;;;;;;;15.28;74.77;99338.38;4962790;28;20034;-93
2023/06/30 03:01:54;;;;;;;5.68;3.75;;;;;;;15.38;74.02;99345.50;4965973;28;20433;-95
2023/06/30 03:04:19;;;;;;;6.80;3.90;;;;;;;15.26;74.31;99335.16;4966584;28;20456;-94
2023/06/30 03:06:44;;;;;;;7.13;4.35;;;;;;;15.34;74.14;99345.31;4966772;28;20022;-93
2023/06/30 03:09:10;;;;;;;12.60;5.10;;;;;;;15.29;74.53;99339.97;4968004;28;20030;-94
2023/06/30 03:11:35;;;;;;;4.25;3.53;;;;;;;15.34;74.63;99348.03;4977810;28;20057;-93
2023/06/30 03:14:01;;;;;;;6.25;3.17;;;;;;;15.19;74.18;99334.72;4980377;28;20022;-94
2023/06/30 03:16:27;;;;;;;8.98;4.07;;;;;;;15.16;74.82;99341.56;4980989;28;20030;-93
2023/06/30 03:18:53;;;;;;;7.32;3.95;;;;;;;15.09;74.61;99341.97;4999064;28;20073;-93
2023/06/30 03:21:19;;;;;;;7.93;3.35;;;;;;;15.04;75.20;99347.47;4981055;28;20035;-92
2023/06/30 03:23:45;;;;;;;6.38;4.00;;;;;;;15.01;75.26;99342.66;4992635;28;20054;-93
2023/06/30 03:26:11;;;;;;;8.15;3.67;;;;;;;15.02;74.89;99344.25;4970588;28;20030;-93
2023/06/30 03:28:36;;;;;;;5.43;3.55;;;;;;;15.08;74.20;99339.53;4986175;28;20037;-88
2023/06/30 03:31:02;;;;;;;4.97;3.60;;;;;;;15.14;74.65;99341.88;4998064;28;20057;-88
2023/06/30 03:33:28;;;;;;;6.65;4.22;;;;;;;15.25;73.84;99336.25;4990435;28;20469;-88
2023/06/30 03:35:54;;;;;;;5.95;3.45;;;;;;;15.36;73.63;99335.75;5025564;28;20030;-89
2023/06/30 03:38:20;;;;;;;5.95;3.88;;;;;;;15.40;73.61;99346.81;5000262;28;20053;-89
2023/06/30 03:40:45;;;;;;;6.82;3.83;;;;;;;15.44;73.53;99336.16;5000905;28;20022;-89
2023/06/30 03:43:11;;;;;;;8.35;4.25;;;;;;;15.60;73.19;99340.16;4984101;28;20033;-88
2023/06/30 03:45:38;;;;;;;17.63;4.70;;;;;;;15.50;73.24;99322.22;4984238;28;20037;-88
2023/06/30 03:48:03;;;;;;;6.93;3.95;;;;;;;15.44;73.60;99325.31;4984650;28;20036;-89
2023/06/30 03:50:29;;;;;;;10.68;4.85;;;;;;;15.49;73.17;99323.28;4984271;28;20030;-88
2023/06/30 03:52:54;;;;;;;5.90;4.10;;;;;;;15.60;73.06;99328.53;4983038;28;20034;-89
2023/06/30 03:55:20;;;;;;;5.40;4.05;;;;;;;15.70;73.03;99331.81;4983843;28;20025;-88
2023/06/30 03:57:45;;;;;;;8.15;4.03;;;;;;;15.57;74.40;99343.50;5009140;28;20029;-88
2023/06/30 04:00:11;;;;;;;13.35;4.93;;;;;;;15.49;74.36;99334.16;5000156;28;20408;-88
2023/06/30 04:02:37;;;;;;;9.23;4.53;;;;;;;15.55;74.40;99329.44;4983643;28;20038;-88
2023/06/30 04:05:02;;;;;;;9.95;4.65;;;;;;;15.75;73.87;99331.75;4988486;28;20428;-89
2023/06/30 04:07:28;;;;;;;6.18;4.70;;;;;;;15.87;72.82;99330.44;4987892;28;20030;-88
2023/06/30 04:09:53;;;;;;;6.75;5.10;;;;;;;15.92;72.12;99338.47;4983630;28;20030;-88
2023/06/30 04:12:19;;;;;;;15.30;4.93;;;;;;;15.94;73.30;99331.63;4998078;28;20034;-88
2023/06/30 04:14:45;;;;;;;11.15;4.65;;;;;;;15.95;73.22;99333.22;4984220;28;20060;-88
2023/06/30 04:17:10;;;;;;;10.18;4.68;;;;;;;15.95;73.12;99335.94;4984083;28;20037;-89
2023/06/30 04:19:36;;;;;;;7.78;4.22;;;;;;;16.16;71.78;99335.47;4998672;28;20026;-88
2023/06/30 04:22:01;;;;;;;6.20;4.75;;;;;;;16.28;70.71;99340.38;4996090;28;20026;-88
2023/06/30 04:24:27;;;;;;;12.98;5.40;;;;;;;16.33;70.07;99334.81;4984311;28;20381;-92
2023/06/30 04:26:52;;;;;;;13.55;5.20;;;;;;;16.46;70.32;99344.84;5001357;28;20037;-93
2023/06/30 04:29:17;;;;;;;8.70;5.00;;;;;;;16.49;69.97;99327.13;4974003;28;20168;-93
2023/06/30 04:31:45;;;;;;;15.50;8.07;;;;;;;16.62;68.85;99341.75;4984483;28;20030;-95
2023/06/30 04:34:11;;;;;;;7.60;5.28;;;;;;;16.68;68.13;99335.88;4984803;28;20125;-94
2023/06/30 04:36:36;;;;;;;8.32;5.88;;;;;;;16.88;66.96;99341.97;5002350;28;20042;-95
2023/06/30 04:39:02;;;;;;;10.88;6.20;;;;;;;17.03;66.33;99357.09;4986479;28;20076;-95
2023/06/30 04:41:28;;;;;;;8.88;6.25;;;;;;;17.05;66.48;99350.22;4985531;28;20431;-93
2023/06/30 04:43:54;;;;;;;9.95;5.00;;;;;;;17.16;65.95;99346.13;4984921;28;20030;-93
2023/06/30 04:46:19;;;;;;;8.80;4.88;;;;;;;17.20;65.87;99340.84;4965647;28;20034;-95
2023/06/30 04:48:45;;;;;;;10.48;5.50;;;;;;;17.34;65.89;99357.06;4950458;28;20037;-94
2023/06/30 04:51:15;;;;;;;10.27;4.70;;;;;;;17.33;65.71;99350.03;4963890;28;20029;-95
2023/06/30 04:53:40;;;;;;;7.82;5.13;;;;;;;17.47;64.75;99341.75;4971818;28;20026;-94
2023/06/30 04:56:06;;;;;;;11.80;5.85;;;;;;;17.52;64.75;99347.06;4975966;28;20046;-94
2023/06/30 04:58:41;;;;;;;10.63;5.97;;;;;;;17.53;65.06;99340.50;4949803;28;20030;-94
2023/06/30 05:01:07;;;;;;;17.20;6.60;;;;;;;17.73;65.19;99353.53;4958592;28;20026;-95
2023/06/30 05:03:33;;;;;;;9.05;5.57;;;;;;;17.78;65.74;99338.94;4966522;28;20430;-92
2023/06/30 05:06:01;;;;;;;9.15;5.60;;;;;;;17.87;65.14;99331.66;4967748;28;20030;-95
2023/06/30 05:08:28;;;;;;;9.48;5.50;;;;;;;18.20;64.32;99363.09;4963725;28;20044;-93
2023/06/30 05:10:53;;;;;;;13.38;5.35;;;;;;;18.16;63.42;99346.59;4997987;28;20031;-94
2023/06/30 05:13:19;;;;;;;7.80;4.88;;;;;;;18.25;62.84;99349.31;4985788;28;20029;-93
2023/06/30 05:15:44;;;;;;;5.85;4.95;;;;;;;18.33;62.60;99343.84;4969748;28;20029;-90
2023/06/30 05:18:15;;;;;;;1213.80;403.02;;;;;;;18.40;62.57;99339.84;4967822;28;20036;-93
2023/06/30 05:20:41;;;;;;;7.50;5.93;;;;;;;18.57;61.94;99348.84;4981914;28;20038;-94
2023/06/30 05:23:07;;;;;;;8.20;5.13;;;;;;;18.66;61.19;99351.53;4951396;28;20040;-96
2023/06/30 05:25:32;;;;;;;10.35;4.80;;;;;;;18.76;61.16;99353.94;4965298;28;20034;-93
2023/06/30 05:28:01;;;;;;;6.60;4.85;;;;;;;18.94;60.05;99368.34;4987811;28;20157;-96
2023/06/30 05:30:31;;;;;;;11.93;5.18;;;;;;;18.94;59.80;99327.44;4999514;28;20037;-96
2023/06/30 05:32:59;;;;;;;6.03;5.35;;;;;;;18.97;59.81;99345.91;4998153;28;20025;-94
2023/06/30 05:35:24;;;;;;;8.40;4.75;;;;;;;18.98;59.95;99333.03;4986169;28;20053;-95
2023/06/30 05:37:55;;;;;;;8.95;5.57;;;;;;;19.23;60.60;99371.50;4970049;28;20064;-94
2023/06/30 05:40:30;;;;;;;11.80;7.80;;;;;;;19.31;60.39;99365.22;4970440;28;20056;-93
2023/06/30 05:42:56;;;;;;;9.85;7.07;;;;;;;19.37;59.63;99351.06;4969178;28;20026;-90
2023/06/30 05:45:21;;;;;;;9.80;6.72;;;;;;;19.49;60.06;99352.31;4969195;28;20455;-90
2023/06/30 05:47:47;;;;;;;10.93;6.90;;;;;;;19.62;59.72;99359.47;4968615;28;20026;-90
2023/06/30 05:50:12;;;;;;;10.77;4.85;;;;;;;19.66;59.62;99351.41;4982714;28;20112;-90
2023/06/30 05:52:39;;;;;;;6.00;4.68;;;;;;;19.75;58.63;99355.72;4967589;28;20030;-92
2023/06/30 05:55:05;;;;;;;5.50;4.45;;;;;;;19.88;59.16;99361.25;4982683;28;20173;-90
2023/06/30 05:57:30;;;;;;;6.93;4.97;;;;;;;19.75;59.22;99346.72;4983884;28;20038;-92
2023/06/30 05:59:56;;;;;;;13.40;5.25;;;;;;;19.96;59.01;99353.03;4965092;28;20472;-92
2023/06/30 06:02:21;;;;;;;7.35;5.00;;;;;;;20.03;58.95;99348.97;4968099;28;20041;-90
2023/06/30 06:04:47;;;;;;;8.43;5.95;;;;;;;20.17;58.42;99360.44;4984318;28;20045;-90
2023/06/30 06:07:12;;;;;;;9.93;4.43;;;;;;;20.11;58.23;99350.84;5003082;28;20029;-93
2023/06/30 06:09:45;;;;;;;7.10;4.15;;;;;;;20.17;57.78;99346.75;5005482;28;20021;-91
2023/06/30 06:12:21;;;;;;;7.53;4.13;;;;;;;20.36;57.27;99349.06;5005879;28;20068;-96
2023/06/30 06:14:56;;;;;;;6.07;3.90;;;;;;;20.48;57.29;99353.75;5008645;28;20485;-92
2023/06/30 06:17:33;;;;;;;5.55;3.60;;;;;;;20.51;56.83;99339.44;4991376;28;20050;-92
2023/06/30 06:20:25;;;;;;;5.88;4.07;;;;;;;20.67;56.79;99347.81;4969531;28;20021;-91
2023/06/30 06:22:51;;;;;;;;;;;;;;;20.87;56.50;99365.34;4936814;29;20055;-91
2023/06/30 06:25:16;;;;;;;5.78;3.72;;;;;;;20.85;56.18;99332.03;4924321;29;19914;-92
2023/06/30 06:27:43;;;;;;;6.07;4.13;;;;;;;21.09;55.52;99343.03;4977090;28;20041;-91
2023/06/30 06:30:09;;;;;;;5.93;4.13;;;;;;;21.14;55.25;99336.53;4968388;28;20025;-91
2023/06/30 06:32:36;;;;;;;5.43;3.60;;;;;;;21.31;54.47;99355.53;4963859;28;20537;-92
2023/06/30 06:35:02;;;;;;;7.35;4.68;;;;;;;21.42;53.91;99338.66;4964873;28;20037;-92
2023/06/30 06:37:28;;;;;;;9.57;4.85;;;;;;;21.51;53.57;99328.41;4984931;28;20061;-91
2023/06/30 06:39:53;;;;;;;8.65;4.63;;;;;;;21.59;53.87;99322.78;4960825;28;20037;-91
2023/06/30 06:43:13;;;;;;;7.38;4.35;;;;;;;21.81;54.32;99359.09;4961716;28;20034;-90
2023/06/30 06:45:38;;;;;;;24.83;15.77;;;;;;;21.92;53.24;99341.03;4946151;29;20129;-91
2023/06/30 06:48:21;;;;;;;8.00;3.83;;;;;;;22.01;52.56;99332.66;4961929;28;20504;-93
2023/06/30 06:51:19;;;;;;;3.60;2.50;;;;;;;22.06;51.39;99328.88;4987531;28;20026;-92
2023/06/30 06:53:45;;;;;;;7.05;4.18;;;;;;;22.36;50.86;99337.63;4983363;28;20040;-90
2023/06/30 06:56:31;;;;;;;18.67;15.02;;;;;;;22.60;50.72;99350.47;4968404;28;20026;-91
2023/06/30 06:59:06;;;;;;;5.57;3.03;;;;;;;22.82;49.28;99349.09;4995862;28;20500;-92
2023/06/30 07:01:31;;;;;;;4.53;3.00;;;;;;;22.71;50.61;99315.88;4978379;28;20168;-92
2023/06/30 07:03:57;;;;;;;7.55;3.00;;;;;;;22.85;50.00;99320.97;4949288;28;20056;-91
2023/06/30 07:06:22;;;;;;;4.95;2.65;;;;;;;23.03;49.49;99331.63;4984005;28;20022;-92
2023/06/30 07:08:48;;;;;;;4.10;2.47;;;;;;;23.18;48.43;99342.63;4964402;28;20515;-90
2023/06/30 07:11:14;;;;;;;4.63;2.53;;;;;;;23.22;48.26;99333.66;4957062;28;20061;-90
2023/06/30 07:13:40;;;;;;;4.18;2.60;;;;;;;23.33;47.54;99337.50;4956006;28;20023;-92
2023/06/30 07:16:06;;;;;;;4.60;2.75;;;;;;;23.36;47.26;99326.56;4990739;28;20042;-92
2023/06/30 07:18:32;;;;;;;4.95;2.45;;;;;;;23.40;47.57;99330.19;4991304;28;20060;-93
2023/06/30 07:21:02;;;;;;;3.88;3.10;;;;;;;23.39;47.58;99316.84;4975430;28;20017;-94
2023/06/30 07:23:35;;;;;;;13.90;8.88;;;;;;;23.61;47.88;99323.63;4994050;28;20037;-96
2023/06/30 07:26:10;;;;;;;10.60;5.20;;;;;;;23.92;46.57;99344.00;4978227;28;20040;-92
2023/06/30 07:28:35;;;;;;;3.45;2.53;;;;;;;23.92;46.33;99333.00;5000838;28;20503;-94
2023/06/30 07:31:01;;;;;;;2.83;1.98;;;;;;;23.95;45.60;99307.53;4963188;28;20026;-90
2023/06/30 07:33:27;;;;;;;3.30;2.40;;;;;;;24.03;46.34;99327.72;4955219;28;20026;-90
2023/06/30 07:35:59;;;;;;;4.88;2.50;;;;;;;24.08;46.71;99321.94;4988529;28;20052;-90
2023/06/30 07:38:33;;;;;;;4.50;3.03;;;;;;;24.19;45.74;99315.50;4991303;28;20136;-91
2023/06/30 07:41:01;;;;;;;4.18;2.38;;;;;;;24.27;45.77;99321.16;4991161;28;20033;-90
2023/06/30 07:43:27;;;;;;;6.05;3.00;;;;;;;24.37;45.77;99334.34;4988596;28;20030;-90
2023/06/30 07:46:59;;;;;;;6.22;2.70;;;;;;;24.34;44.47;99316.63;4987785;28;20026;-91
2023/06/30 07:49:33;;;;;;;3.03;2.00;;;;;;;24.33;43.89;99325.22;4941441;29;20093;-89
2023/06/30 07:55:24;;;;;;;4.63;2.17;;;;;;;24.34;44.79;99332.31;5026721;28;20081;-92
2023/06/30 07:57:53;;;;;;;3.78;2.40;;;;;;;24.25;43.66;99315.22;4987593;28;20025;-90
2023/06/30 08:00:28;;;;;;;3.40;1.95;;;;;;;24.17;43.32;99330.78;4988365;28;20045;-94
2023/06/30 08:02:54;;;;;;;5.65;1.60;;;;;;;24.14;41.86;99328.78;5017366;28;20082;-90
2023/06/30 08:05:23;;;;;;;2.88;1.63;;;;;;;24.03;42.14;99311.22;4994737;28;20030;-90
2023/06/30 08:07:57;;;;;;;4.38;2.50;;;;;;;24.19;43.62;99326.50;4984655;28;20042;-90
2023/06/30 08:10:23;;;;;;;3.95;2.30;;;;;;;24.18;42.90;99302.91;4963970;28;20038;-90
2023/06/30 08:12:50;;;;;;;2.65;2.10;;;;;;;24.38;42.74;99297.41;5008839;28;20107;-90
2023/06/30 08:15:25;;;;;;;6.22;2.28;;;;;;;24.46;42.36;99298.34;4999017;28;20053;-90
2023/06/30 08:17:52;;;;;;;4.03;1.70;;;;;;;24.63;42.14;99317.19;5020975;28;20026;-90
2023/06/30 08:20:21;;;;;;;2.60;2.00;;;;;;;24.67;41.98;99317.25;4994726;28;20045;-90
2023/06/30 08:22:49;;;;;;;3.38;1.90;;;;;;;24.61;41.30;99297.47;5008104;28;20040;-90
2023/06/30 08:25:15;;;;;;;5.50;1.85;;;;;;;24.81;42.10;99304.53;5007744;28;20042;-89
2023/06/30 08:27:44;;;;;;;3.10;2.08;;;;;;;24.99;42.20;99313.13;5036058;28;20045;-90
2023/06/30 08:30:15;;;;;;;4.32;2.55;;;;;;;24.95;41.74;99278.44;4994105;28;20025;-88
2023/06/30 08:32:42;;;;;;;3.38;1.60;;;;;;;25.14;40.60;99296.84;5003672;28;20061;-89
2023/06/30 08:35:08;;;;;;;2.67;1.65;;;;;;;25.35;40.22;99297.22;5005561;28;20037;-89
2023/06/30 08:37:34;;;;;;;4.30;1.80;;;;;;;25.47;39.35;99301.72;5018538;28;20073;-88
2023/06/30 08:40:03;;;;;;;4.32;1.85;;;;;;;25.50;39.71;99300.97;4991581;28;20033;-88
2023/06/30 08:42:29;;;;;;;2.90;2.05;;;;;;;25.46;40.70;99297.38;5004108;28;20492;-88
2023/06/30 08:45:00;;;;;;;4.15;1.80;;;;;;;25.69;40.31;99299.28;4987957;28;20365;-87
2023/06/30 08:47:28;;;;;;;1.88;1.50;;;;;;;25.75;39.94;99298.63;5003791;28;20068;-88
2023/06/30 08:49:54;;;;;;;4.50;2.00;;;;;;;25.78;39.19;99305.34;5004502;28;20037;-90
2023/06/30 08:52:22;;;;;;;5.07;2.55;;;;;;;25.83;39.61;99293.97;4991056;28;20124;-87
2023/06/30 08:54:48;;;;;;;2.50;1.65;;;;;;;25.80;40.58;99281.72;4995471;28;20496;-87
2023/06/30 08:57:17;;;;;;;9.65;3.70;;;;;;;25.95;40.23;99279.19;4989376;28;20073;-89
2023/06/30 08:59:43;;;;;;;5.45;2.28;;;;;;;26.25;39.46;99290.22;5009947;28;20057;-88
2023/06/30 09:02:11;;;;;;;4.43;2.20;;;;;;;26.48;38.47;99289.25;4992049;28;20184;-90
2023/06/30 09:04:37;;;;;;;4.38;2.33;;;;;;;26.57;37.71;99285.06;5020609;28;20036;-90
2023/06/30 09:07:06;;;;;;;4.07;2.30;;;;;;;26.47;38.24;99277.44;5008726;28;20025;-91
2023/06/30 09:09:46;;;;;;;2.30;1.63;;;;;;;26.49;37.97;99288.09;5004285;28;20113;-94
2023/06/30 09:12:12;;;;;;;2.72;1.60;;;;;;;26.64;37.53;99278.03;4996378;28;20044;-91
2023/06/30 09:14:40;;;;;;;3.40;1.63;;;;;;;26.87;38.00;99286.16;4993640;28;20029;-87
2023/06/30 09:17:06;;;;;;;2.80;1.80;;;;;;;26.91;37.90;99267.63;5007313;28;20037;-87
2023/06/30 09:19:36;;;;;;;3.67;2.05;;;;;;;27.14;38.35;99268.22;4992596;28;20098;-88
2023/06/30 09:22:04;;;;;;;2.38;1.67;;;;;;;27.04;36.77;99285.53;5027687;28;20076;-88
2023/06/30 09:24:30;;;;;;;6.38;1.63;;;;;;;26.98;36.58;99268.50;5015633;28;20475;-91
2023/06/30 09:26:56;;;;;;;2.35;1.42;;;;;;;26.85;35.79;99253.38;5000623;28;20091;-90
2023/06/30 09:29:28;;;;;;;1.83;1.42;;;;;;;26.83;36.21;99257.69;5011828;28;20029;-89
2023/06/30 09:31:53;;;;;;;2.40;1.70;;;;;;;26.90;36.18;99266.06;4994174;28;20037;-89
2023/06/30 09:34:20;;;;;;;1.77;1.30;;;;;;;26.74;36.64;99258.00;5012919;28;20030;-89
2023/06/30 09:36:54;;;;;;;2.40;1.60;;;;;;;26.61;37.78;99250.00;5028399;28;20033;-88
2023/06/30 09:39:20;;;;;;;2.28;1.67;;;;;;;26.66;38.28;99256.34;5009215;28;20085;-89
2023/06/30 09:41:47;;;;;;;2.63;1.63;;;;;;;26.67;37.81;99247.69;5010037;28;20053;-91
2023/06/30 09:44:13;;;;;;;6.78;2.60;;;;;;;26.72;37.98;99241.03;4974583;28;20057;-89
2023/06/30 09:46:54;;;;;;;2.42;1.67;;;;;;;26.72;37.64;99239.03;4993372;28;20053;-89
2023/06/30 09:49:32;;;;;;;1.85;1.40;;;;;;;26.75;36.65;99243.81;4988955;28;20037;-91
2023/06/30 09:52:22;;;;;;;2.25;1.50;;;;;;;26.76;36.02;99239.09;4974329;28;20082;-91
2023/06/30 09:58:23;;;;;;;2.58;1.55;;;;;;;26.63;35.40;99232.28;5007304;28;20025;-89
2023/06/30 10:00:52;;;;;;;2.60;1.50;;;;;;;26.60;36.09;99231.03;4973176;28;20034;-88
2023/06/30 10:03:18;;;;;;;2.75;2.00;;;;;;;26.49;36.56;99225.38;4981082;28;20037;-87
2023/06/30 10:05:47;;;;;;;3.60;1.67;;;;;;;26.35;36.64;99228.78;4983299;28;20061;-91
2023/06/30 10:08:16;;;;;;;2.78;2.00;;;;;;;26.36;37.51;99241.44;4976959;28;20030;-91
2023/06/30 10:10:42;;;;;;;2.92;1.55;;;;;;;26.44;38.43;99241.50;5011123;28;20025;-91
2023/06/30 10:13:14;;;;;;;3.38;1.55;;;;;;;26.60;36.27;99231.84;4989762;28;20037;-94
2023/06/30 10:15:40;;;;;;;2.50;1.67;;;;;;;26.63;36.35;99224.78;4972937;28;20030;-93
2023/06/30 10:18:07;;;;;;;1.50;1.10;;;;;;;26.49;36.28;99239.19;4972221;28;20129;-94
2023/06/30 10:20:33;;;;;;;2.25;1.40;;;;;;;26.65;36.86;99235.44;5007234;28;20052;-93
2023/06/30 10:23:00;;;;;;;2.85;1.70;;;;;;;26.61;35.61;99227.13;4991407;28;20030;-94
2023/06/30 10:25:28;;;;;;;1.90;1.48;;;;;;;26.67;35.57;99220.06;4993624;28;20005;-95
2023/06/30 10:27:54;;;;;;;3.72;1.85;;;;;;;26.59;36.06;99223.94;5006915;28;20038;-93
2023/06/30 10:30:20;;;;;;;3.20;1.45;;;;;;;26.45;36.14;99227.31;4997624;28;20029;-93
2023/06/30 10:32:47;;;;;;;2.60;1.48;;;;;;;26.69;35.78;99233.50;4989649;28;20026;-93
2023/06/30 10:35:14;;;;;;;2.17;1.58;;;;;;;26.69;35.67;99220.50;5004692;28;20050;-92
2023/06/30 10:37:44;;;;;;;8.02;2.75;;;;;;;26.90;35.32;99192.25;5004599;28;20046;-92
2023/06/30 10:40:25;;;;;;;6.65;2.35;;;;;;;27.39;35.31;99224.22;4987627;28;20083;-92
2023/06/30 10:42:52;;;;;;;2.10;1.23;;;;;;;27.61;33.38;99204.97;5019616;28;20053;-91
2023/06/30 10:45:18;;;;;;;2.22;1.50;;;;;;;27.53;35.15;99198.59;4987419;28;20352;-89
2023/06/30 10:47:52;;;;;;;4.40;1.67;;;;;;;27.70;33.57;99210.13;4971201;28;20057;-91
2023/06/30 10:50:19;;;;;;;1.70;1.20;;;;;;;27.53;34.48;99200.56;4988435;28;20036;-91
2023/06/30 10:53:03;;;;;;;1.73;1.25;;;;;;;27.64;33.17;99214.44;5003516;28;20040;-94
2023/06/30 10:55:30;;;;;;;1.50;1.30;;;;;;;27.67;34.55;99213.69;4987121;28;20057;-92
2023/06/30 10:58:29;;;;;;;2.75;1.83;;;;;;;27.70;34.49;99212.91;4972368;28;20030;-94
2023/06/30 11:01:44;;;;;;;2.20;1.33;;;;;;;27.58;33.93;99216.78;4952322;29;20070;-92
2023/06/30 11:05:01;;;;;;;4.40;2.45;;;;;;;27.50;33.64;99212.41;4957720;28;20047;-92
2023/06/30 11:07:27;;;;;;;5.45;1.52;;;;;;;27.07;34.47;99201.84;4944086;29;20035;-92
2023/06/30 11:09:53;;;;;;;5.60;4.45;;;;;;;27.23;34.36;99206.31;4950867;29;20459;-94
2023/06/30 11:12:23;;;;;;;3.08;1.20;;;;;;;26.95;35.13;99191.09;4946381;29;20117;-94
2023/06/30 11:15:07;;;;;;;2.33;1.70;;;;;;;27.15;34.83;99188.88;4946445;29;20070;-91
2023/06/30 11:17:51;;;;;;;2.53;1.30;;;;;;;27.49;34.49;99200.53;4963479;29;20038;-91
2023/06/30 11:20:19;;;;;;;6.15;2.08;;;;;;;27.45;34.78;99171.28;4968953;29;20039;-91
2023/06/30 11:23:03;;;;;;;3.17;2.00;;;;;;;27.56;34.62;99174.91;4937707;29;20037;-91
2023/06/30 11:25:32;;;;;;;1.65;1.20;;;;;;;27.86;32.76;99182.97;4930699;29;20100;-89
2023/06/30 11:28:02;;;;;;;4.53;1.20;;;;;;;27.98;33.81;99181.81;4911693;29;20024;-90
2023/06/30 11:30:41;;;;;;;1.50;1.20;;;;;;;27.89;33.28;99162.81;4919285;28;20568;-91
2023/06/30 11:33:08;;;;;;;5.13;1.35;;;;;;;28.17;33.04;99156.53;5009762;28;20018;-91
2023/06/30 11:38:47;;;;;;;2.38;1.38;;;;;;;28.17;33.48;99151.00;4915822;29;20071;-90
2023/06/30 11:41:20;;;;;;;5.68;1.80;;;;;;;28.13;34.63;99160.50;4983326;28;20055;-91
2023/06/30 11:43:50;;;;;;;3.72;1.90;;;;;;;28.09;33.60;99143.09;4938631;28;20709;-91
2023/06/30 11:46:23;;;;;;;3.03;1.30;;;;;;;28.05;34.22;99151.38;4962330;28;20061;-90
2023/06/30 11:49:00;;;;;;;2.25;1.65;;;;;;;28.08;33.54;99144.25;4949373;28;20117;-92